sensor_id;sensor_type;location;lat;lon;timestamp;pressure;altitude;pressure_sealevel;temperature
74750;BMP280;63269;53.330;-6.288;2022-12-07T00:01:25;102602.38;;;19.57
74750;BMP280;63269;53.330;-6.288;2022-12-07T00:03:53;102605.44;;;19.56
74750;BMP280;63269;53.330;-6.288;2022-12-07T00:06:19;102605.03;;;19.54
74750;BMP280;63269;53.330;-6.288;2022-12-07T00:08:46;102606.94;;;19.53
74750;BMP280;63269;53.330;-6.288;2022-12-07T00:11:14;102600.47;;;19.51
74750;BMP280;63269;53.330;-6.288;2022-12-07T00:13:40;102603.50;;;19.49
74750;BMP280;63269;53.330;-6.288;2022-12-07T00:16:12;102606.16;;;19.49
74750;BMP280;63269;53.330;-6.288;2022-12-07T00:18:38;102600.50;;;19.47
74750;BMP280;63269;53.330;-6.288;2022-12-07T00:21:05;102606.53;;;19.48
74750;BMP280;63269;53.330;-6.288;2022-12-07T00:23:31;102600.06;;;19.45
74750;BMP280;63269;53.330;-6.288;2022-12-07T00:26:03;102602.72;;;19.45
74750;BMP280;63269;53.330;-6.288;2022-12-07T00:28:29;102603.09;;;19.44
74750;BMP280;63269;53.330;-6.288;2022-12-07T00:31:01;102603.09;;;19.44
74750;BMP280;63269;53.330;-6.288;2022-12-07T00:33:26;102594.75;;;19.38
74750;BMP280;63269;53.330;-6.288;2022-12-07T00:35:57;102594.75;;;19.38
74750;BMP280;63269;53.330;-6.288;2022-12-07T00:38:24;102586.38;;;19.36
74750;BMP280;63269;53.330;-6.288;2022-12-07T00:41:03;102586.38;;;19.36
74750;BMP280;63269;53.330;-6.288;2022-12-07T00:43:29;102591.28;;;19.30
74750;BMP280;63269;53.330;-6.288;2022-12-07T00:45:55;102599.66;;;19.32
74750;BMP280;63269;53.330;-6.288;2022-12-07T00:48:21;102599.66;;;19.32
74750;BMP280;63269;53.330;-6.288;2022-12-07T00:50:46;102598.13;;;19.31
74750;BMP280;63269;53.330;-6.288;2022-12-07T00:53:12;102597.00;;;19.29
74750;BMP280;63269;53.330;-6.288;2022-12-07T00:55:37;102584.81;;;19.28
74750;BMP280;63269;53.330;-6.288;2022-12-07T00:58:03;102584.81;;;19.28
74750;BMP280;63269;53.330;-6.288;2022-12-07T01:00:29;102587.06;;;19.26
74750;BMP280;63269;53.330;-6.288;2022-12-07T01:02:54;102587.47;;;19.31
74750;BMP280;63269;53.330;-6.288;2022-12-07T01:05:20;102589.41;;;19.34
74750;BMP280;63269;53.330;-6.288;2022-12-07T01:07:45;102586.00;;;19.38
74750;BMP280;63269;53.330;-6.288;2022-12-07T01:10:12;102591.31;;;19.41
74750;BMP280;63269;53.330;-6.288;2022-12-07T01:12:38;102590.56;;;19.44
74750;BMP280;63269;53.330;-6.288;2022-12-07T01:15:04;102593.97;;;19.48
74750;BMP280;63269;53.330;-6.288;2022-12-07T01:17:30;102591.72;;;19.50
74750;BMP280;63269;53.330;-6.288;2022-12-07T01:19:55;102592.88;;;19.53
74750;BMP280;63269;53.330;-6.288;2022-12-07T01:22:21;102588.69;;;19.55
74750;BMP280;63269;53.330;-6.288;2022-12-07T01:24:46;102595.16;;;19.58
74750;BMP280;63269;53.330;-6.288;2022-12-07T01:27:13;102595.94;;;19.59
74750;BMP280;63269;53.330;-6.288;2022-12-07T01:29:38;102587.19;;;19.62
74750;BMP280;63269;53.330;-6.288;2022-12-07T01:32:04;102589.47;;;19.63
74750;BMP280;63269;53.330;-6.288;2022-12-07T01:34:29;102584.91;;;19.64
74750;BMP280;63269;53.330;-6.288;2022-12-07T01:36:54;102580.72;;;19.66
74750;BMP280;63269;53.330;-6.288;2022-12-07T01:39:20;102578.81;;;19.67
74750;BMP280;63269;53.330;-6.288;2022-12-07T01:41:45;102572.34;;;19.68
74750;BMP280;63269;53.330;-6.288;2022-12-07T01:46:44;102568.56;;;19.69
74750;BMP280;63269;53.330;-6.288;2022-12-07T01:49:14;102557.91;;;19.72
74750;BMP280;63269;53.330;-6.288;2022-12-07T01:51:42;102552.94;;;19.71
74750;BMP280;63269;53.330;-6.288;2022-12-07T01:54:10;102557.53;;;19.74
74750;BMP280;63269;53.330;-6.288;2022-12-07T01:56:37;102557.53;;;19.74
74750;BMP280;63269;53.330;-6.288;2022-12-07T01:59:03;102559.44;;;19.77
74750;BMP280;63269;53.330;-6.288;2022-12-07T02:01:29;102558.28;;;19.78
74750;BMP280;63269;53.330;-6.288;2022-12-07T02:03:54;102558.28;;;19.78
74750;BMP280;63269;53.330;-6.288;2022-12-07T02:06:22;102559.06;;;19.79
74750;BMP280;63269;53.330;-6.288;2022-12-07T02:08:49;102562.09;;;19.81
74750;BMP280;63269;53.330;-6.288;2022-12-07T02:11:15;102562.09;;;19.81
74750;BMP280;63269;53.330;-6.288;2022-12-07T02:13:42;102555.25;;;19.83
74750;BMP280;63269;53.330;-6.288;2022-12-07T02:29:22;102546.50;;;19.86
74750;BMP280;63269;53.330;-6.288;2022-12-07T02:32:03;102543.44;;;19.88
74750;BMP280;63269;53.330;-6.288;2022-12-07T02:35:05;102542.31;;;19.89
74750;BMP280;63269;53.330;-6.288;2022-12-07T02:40:05;102544.97;;;19.89
74750;BMP280;63269;53.330;-6.288;2022-12-07T02:42:36;102539.63;;;19.89
74750;BMP280;63269;53.330;-6.288;2022-12-07T02:45:04;102540.03;;;19.91
74750;BMP280;63269;53.330;-6.288;2022-12-07T02:47:31;102540.03;;;19.91
74750;BMP280;63269;53.330;-6.288;2022-12-07T02:49:58;102538.50;;;19.93
74750;BMP280;63269;53.330;-6.288;2022-12-07T02:52:24;102529.75;;;19.93
74750;BMP280;63269;53.330;-6.288;2022-12-07T02:54:49;102529.75;;;19.93
74750;BMP280;63269;53.330;-6.288;2022-12-07T02:57:25;102535.06;;;19.93
74750;BMP280;63269;53.330;-6.288;2022-12-07T03:13:34;102524.78;;;19.95
74750;BMP280;63269;53.330;-6.288;2022-12-07T03:18:53;102524.78;;;19.95
74750;BMP280;63269;53.330;-6.288;2022-12-07T03:21:23;102514.50;;;19.97
74750;BMP280;63269;53.330;-6.288;2022-12-07T03:23:53;102517.94;;;19.97
74750;BMP280;63269;53.330;-6.288;2022-12-07T03:26:22;102517.94;;;19.97
74750;BMP280;63269;53.330;-6.288;2022-12-07T03:28:52;102514.50;;;19.97
74750;BMP280;63269;53.330;-6.288;2022-12-07T03:31:41;102520.59;;;19.97
74750;BMP280;63269;53.330;-6.288;2022-12-07T03:34:12;102520.59;;;19.97
74750;BMP280;63269;53.330;-6.288;2022-12-07T03:37:26;102513.75;;;19.93
74750;BMP280;63269;53.330;-6.288;2022-12-07T03:42:27;102513.00;;;19.89
74750;BMP280;63269;53.330;-6.288;2022-12-07T03:44:53;102513.00;;;19.89
74750;BMP280;63269;53.330;-6.288;2022-12-07T03:47:33;102510.34;;;19.85
74750;BMP280;63269;53.330;-6.288;2022-12-07T03:50:09;102514.16;;;19.84
74750;BMP280;63269;53.330;-6.288;2022-12-07T03:53:11;102508.44;;;19.82
74750;BMP280;63269;53.330;-6.288;2022-12-07T03:55:42;102508.44;;;19.82
74750;BMP280;63269;53.330;-6.288;2022-12-07T03:58:11;102511.13;;;19.79
74750;BMP280;63269;53.330;-6.288;2022-12-07T04:00:38;102499.69;;;19.74
74750;BMP280;63269;53.330;-6.288;2022-12-07T04:03:05;102504.63;;;19.72
74750;BMP280;63269;53.330;-6.288;2022-12-07T04:05:30;102492.47;;;19.71
74750;BMP280;63269;53.330;-6.288;2022-12-07T04:07:56;102503.88;;;19.68
74750;BMP280;63269;53.330;-6.288;2022-12-07T04:10:21;102499.72;;;19.67
74750;BMP280;63269;53.330;-6.288;2022-12-07T04:12:46;102499.72;;;19.67
74750;BMP280;63269;53.330;-6.288;2022-12-07T04:15:12;102489.03;;;19.64
74750;BMP280;63269;53.330;-6.288;2022-12-07T04:17:38;102486.75;;;19.62
74750;BMP280;63269;53.330;-6.288;2022-12-07T04:20:04;102478.38;;;19.56
74750;BMP280;63269;53.330;-6.288;2022-12-07T04:22:30;102491.31;;;19.58
74750;BMP280;63269;53.330;-6.288;2022-12-07T04:24:55;102486.38;;;19.56
74750;BMP280;63269;53.330;-6.288;2022-12-07T04:27:21;102478.78;;;19.55
74750;BMP280;63269;53.330;-6.288;2022-12-07T04:29:46;102481.81;;;19.53
74750;BMP280;63269;53.330;-6.288;2022-12-07T04:32:12;102470.41;;;19.49
74750;BMP280;63269;53.330;-6.288;2022-12-07T04:34:38;102477.63;;;19.49
74750;BMP280;63269;53.330;-6.288;2022-12-07T04:37:03;102478.03;;;19.47
74750;BMP280;63269;53.330;-6.288;2022-12-07T04:39:31;102473.84;;;19.46
74750;BMP280;63269;53.330;-6.288;2022-12-07T04:41:57;102465.44;;;19.44
74750;BMP280;63269;53.330;-6.288;2022-12-07T04:44:24;102465.44;;;19.44
74750;BMP280;63269;53.330;-6.288;2022-12-07T04:46:50;102463.56;;;19.38
74750;BMP280;63269;53.330;-6.288;2022-12-07T04:49:16;102463.56;;;19.38
74750;BMP280;63269;53.330;-6.288;2022-12-07T04:51:42;102471.56;;;19.38
74750;BMP280;63269;53.330;-6.288;2022-12-07T04:54:09;102470.03;;;19.36
74750;BMP280;63269;53.330;-6.288;2022-12-07T04:56:34;102470.03;;;19.36
74750;BMP280;63269;53.330;-6.288;2022-12-07T04:59:01;102458.59;;;19.40
74750;BMP280;63269;53.330;-6.288;2022-12-07T05:01:26;102463.94;;;19.43
74750;BMP280;63269;53.330;-6.288;2022-12-07T05:03:52;102463.94;;;19.43
74750;BMP280;63269;53.330;-6.288;2022-12-07T05:06:18;102458.25;;;19.45
74750;BMP280;63269;53.330;-6.288;2022-12-07T05:08:44;102457.47;;;19.48
74750;BMP280;63269;53.330;-6.288;2022-12-07T05:11:10;102459.38;;;19.51
74750;BMP280;63269;53.330;-6.288;2022-12-07T05:13:54;102466.22;;;19.55
74750;BMP280;63269;53.330;-6.288;2022-12-07T05:16:19;102469.28;;;19.57
74750;BMP280;63269;53.330;-6.288;2022-12-07T05:18:45;102463.56;;;19.59
74750;BMP280;63269;53.330;-6.288;2022-12-07T05:21:10;102474.56;;;19.61
74750;BMP280;63269;53.330;-6.288;2022-12-07T05:23:36;102465.47;;;19.62
74750;BMP280;63269;53.330;-6.288;2022-12-07T05:26:01;102465.09;;;19.64
74750;BMP280;63269;53.330;-6.288;2022-12-07T05:28:26;102462.41;;;19.64
74750;BMP280;63269;53.330;-6.288;2022-12-07T05:30:52;102467.38;;;19.65
74750;BMP280;63269;53.330;-6.288;2022-12-07T05:33:17;102467.38;;;19.65
74750;BMP280;63269;53.330;-6.288;2022-12-07T05:35:42;102477.63;;;19.67
74750;BMP280;63269;53.330;-6.288;2022-12-07T05:38:08;102470.03;;;19.69
74750;BMP280;63269;53.330;-6.288;2022-12-07T05:40:33;102474.25;;;19.70
74750;BMP280;63269;53.330;-6.288;2022-12-07T05:42:58;102479.56;;;19.70
74750;BMP280;63269;53.330;-6.288;2022-12-07T05:45:24;102479.56;;;19.70
74750;BMP280;63269;53.330;-6.288;2022-12-07T05:47:49;102466.22;;;19.73
74750;BMP280;63269;53.330;-6.288;2022-12-07T05:50:15;102466.97;;;19.74
74750;BMP280;63269;53.330;-6.288;2022-12-07T05:52:40;102475.34;;;19.76
74750;BMP280;63269;53.330;-6.288;2022-12-07T05:55:06;102468.13;;;19.76
74750;BMP280;63269;53.330;-6.288;2022-12-07T05:57:32;102463.56;;;19.77
74750;BMP280;63269;53.330;-6.288;2022-12-07T05:59:57;102471.19;;;19.79
74750;BMP280;63269;53.330;-6.288;2022-12-07T06:02:22;102471.19;;;19.79
74750;BMP280;63269;53.330;-6.288;2022-12-07T06:04:48;102461.25;;;19.79
74750;BMP280;63269;53.330;-6.288;2022-12-07T06:07:15;102461.25;;;19.79
74750;BMP280;63269;53.330;-6.288;2022-12-07T06:09:41;102459.34;;;19.80
74750;BMP280;63269;53.330;-6.288;2022-12-07T06:12:08;102454.81;;;19.80
74750;BMP280;63269;53.330;-6.288;2022-12-07T06:14:53;102455.56;;;19.81
74750;BMP280;63269;53.330;-6.288;2022-12-07T06:17:18;102456.34;;;19.81
74750;BMP280;63269;53.330;-6.288;2022-12-07T06:19:43;102459.38;;;19.83
74750;BMP280;63269;53.330;-6.288;2022-12-07T06:22:09;102459.38;;;19.83
74750;BMP280;63269;53.330;-6.288;2022-12-07T06:24:37;102441.47;;;19.84
74750;BMP280;63269;53.330;-6.288;2022-12-07T06:27:03;102448.31;;;19.85
74750;BMP280;63269;53.330;-6.288;2022-12-07T06:29:29;102449.06;;;19.85
74750;BMP280;63269;53.330;-6.288;2022-12-07T06:31:55;102441.09;;;19.85
74750;BMP280;63269;53.330;-6.288;2022-12-07T06:34:22;102450.59;;;19.86
74750;BMP280;63269;53.330;-6.288;2022-12-07T06:36:48;102448.72;;;19.87
74750;BMP280;63269;53.330;-6.288;2022-12-07T06:39:18;102448.72;;;19.87
74750;BMP280;63269;53.330;-6.288;2022-12-07T06:41:44;102444.53;;;19.86
74750;BMP280;63269;53.330;-6.288;2022-12-07T06:44:09;102443.41;;;19.87
74750;BMP280;63269;53.330;-6.288;2022-12-07T06:46:37;102442.22;;;19.88
74750;BMP280;63269;53.330;-6.288;2022-12-07T06:49:04;102437.28;;;19.86
74750;BMP280;63269;53.330;-6.288;2022-12-07T06:51:30;102440.34;;;19.88
74750;BMP280;63269;53.330;-6.288;2022-12-07T06:53:55;102444.50;;;19.89
74750;BMP280;63269;53.330;-6.288;2022-12-07T06:56:21;102440.72;;;19.90
74750;BMP280;63269;53.330;-6.288;2022-12-07T06:58:48;102440.72;;;19.90
74750;BMP280;63269;53.330;-6.288;2022-12-07T07:01:14;102441.47;;;19.91
74750;BMP280;63269;53.330;-6.288;2022-12-07T07:03:40;102439.59;;;19.91
74750;BMP280;63269;53.330;-6.288;2022-12-07T07:06:06;102439.59;;;19.91
74750;BMP280;63269;53.330;-6.288;2022-12-07T07:08:33;102440.34;;;19.92
74750;BMP280;63269;53.330;-6.288;2022-12-07T07:10:58;102438.41;;;19.92
74750;BMP280;63269;53.330;-6.288;2022-12-07T07:13:24;102441.09;;;19.92
74750;BMP280;63269;53.330;-6.288;2022-12-07T07:15:50;102441.09;;;19.92
74750;BMP280;63269;53.330;-6.288;2022-12-07T07:18:15;102442.59;;;19.93
74750;BMP280;63269;53.330;-6.288;2022-12-07T07:20:41;102445.25;;;19.93
74750;BMP280;63269;53.330;-6.288;2022-12-07T07:23:06;102445.25;;;19.93
74750;BMP280;63269;53.330;-6.288;2022-12-07T07:25:32;102435.38;;;19.94
74750;BMP280;63269;53.330;-6.288;2022-12-07T07:27:58;102428.91;;;19.95
74750;BMP280;63269;53.330;-6.288;2022-12-07T07:30:24;102430.06;;;19.94
74750;BMP280;63269;53.330;-6.288;2022-12-07T07:32:50;102431.56;;;19.95
74750;BMP280;63269;53.330;-6.288;2022-12-07T07:35:15;102437.66;;;19.95
74750;BMP280;63269;53.330;-6.288;2022-12-07T07:37:41;102436.88;;;19.95
74750;BMP280;63269;53.330;-6.288;2022-12-07T07:40:08;102436.88;;;19.95
74750;BMP280;63269;53.330;-6.288;2022-12-07T07:42:33;102443.00;;;19.95
74750;BMP280;63269;53.330;-6.288;2022-12-07T07:44:58;102449.84;;;19.96
74750;BMP280;63269;53.330;-6.288;2022-12-07T07:47:24;102443.00;;;19.95
74750;BMP280;63269;53.330;-6.288;2022-12-07T07:49:49;102440.34;;;19.95
74750;BMP280;63269;53.330;-6.288;2022-12-07T07:52:15;102442.22;;;19.95
74750;BMP280;63269;53.330;-6.288;2022-12-07T07:54:40;102440.34;;;19.95
74750;BMP280;63269;53.330;-6.288;2022-12-07T07:57:05;102438.41;;;19.96
74750;BMP280;63269;53.330;-6.288;2022-12-07T07:59:31;102446.00;;;19.97
74750;BMP280;63269;53.330;-6.288;2022-12-07T08:01:56;102442.59;;;19.97
74750;BMP280;63269;53.330;-6.288;2022-12-07T08:04:22;102447.53;;;19.98
74750;BMP280;63269;53.330;-6.288;2022-12-07T08:06:47;102450.59;;;19.97
74750;BMP280;63269;53.330;-6.288;2022-12-07T08:09:12;102444.50;;;19.96
74750;BMP280;63269;53.330;-6.288;2022-12-07T08:11:38;102447.53;;;19.98
74750;BMP280;63269;53.330;-6.288;2022-12-07T08:14:03;102449.44;;;19.98
74750;BMP280;63269;53.330;-6.288;2022-12-07T08:16:29;102451.34;;;19.97
74750;BMP280;63269;53.330;-6.288;2022-12-07T08:18:54;102444.13;;;19.98
74750;BMP280;63269;53.330;-6.288;2022-12-07T08:21:20;102448.28;;;19.99
74750;BMP280;63269;53.330;-6.288;2022-12-07T08:23:45;102450.97;;;19.99
74750;BMP280;63269;53.330;-6.288;2022-12-07T08:26:14;102453.63;;;19.99
74750;BMP280;63269;53.330;-6.288;2022-12-07T08:28:40;102453.63;;;19.99
74750;BMP280;63269;53.330;-6.288;2022-12-07T08:31:09;102443.75;;;20.00
74750;BMP280;63269;53.330;-6.288;2022-12-07T08:33:35;102443.75;;;20.00
74750;BMP280;63269;53.330;-6.288;2022-12-07T08:36:06;102439.16;;;20.00
74750;BMP280;63269;53.330;-6.288;2022-12-07T08:38:37;102436.09;;;20.02
74750;BMP280;63269;53.330;-6.288;2022-12-07T08:41:03;102437.63;;;20.03
74750;BMP280;63269;53.330;-6.288;2022-12-07T08:43:29;102441.81;;;20.04
74750;BMP280;63269;53.330;-6.288;2022-12-07T08:48:33;102434.19;;;20.06
74750;BMP280;63269;53.330;-6.288;2022-12-07T08:51:01;102441.81;;;20.07
74750;BMP280;63269;53.330;-6.288;2022-12-07T08:53:27;102438.75;;;20.09
74750;BMP280;63269;53.330;-6.288;2022-12-07T08:55:53;102436.09;;;20.09
74750;BMP280;63269;53.330;-6.288;2022-12-07T08:58:18;102436.09;;;20.09
74750;BMP280;63269;53.330;-6.288;2022-12-07T09:00:44;102440.28;;;20.10
74750;BMP280;63269;53.330;-6.288;2022-12-07T09:03:09;102445.22;;;20.11
74750;BMP280;63269;53.330;-6.288;2022-12-07T09:05:34;102432.66;;;20.12
74750;BMP280;63269;53.330;-6.288;2022-12-07T09:08:01;102434.19;;;20.13
74750;BMP280;63269;53.330;-6.288;2022-12-07T09:10:28;102441.06;;;20.14
74750;BMP280;63269;53.330;-6.288;2022-12-07T09:12:53;102437.97;;;20.15
74750;BMP280;63269;53.330;-6.288;2022-12-07T09:15:19;102435.31;;;20.15
74750;BMP280;63269;53.330;-6.288;2022-12-07T09:17:44;102430.72;;;20.16
74750;BMP280;63269;53.330;-6.288;2022-12-07T09:20:10;102437.97;;;20.15
74750;BMP280;63269;53.330;-6.288;2022-12-07T09:22:35;102442.53;;;20.15
74750;BMP280;63269;53.330;-6.288;2022-12-07T09:25:01;102442.53;;;20.15
74750;BMP280;63269;53.330;-6.288;2022-12-07T09:27:27;102440.66;;;20.15
74750;BMP280;63269;53.330;-6.288;2022-12-07T09:29:53;102438.72;;;20.16
74750;BMP280;63269;53.330;-6.288;2022-12-07T09:32:18;102444.84;;;20.16
74750;BMP280;63269;53.330;-6.288;2022-12-07T09:34:44;102444.84;;;20.16
74750;BMP280;63269;53.330;-6.288;2022-12-07T09:37:09;102434.94;;;20.17
74750;BMP280;63269;53.330;-6.288;2022-12-07T09:39:37;102437.59;;;20.17
74750;BMP280;63269;53.330;-6.288;2022-12-07T09:42:04;102441.41;;;20.16
74750;BMP280;63269;53.330;-6.288;2022-12-07T09:44:30;102441.41;;;20.16
74750;BMP280;63269;53.330;-6.288;2022-12-07T09:46:55;102441.41;;;20.16
74750;BMP280;63269;53.330;-6.288;2022-12-07T09:49:23;102441.41;;;20.16
74750;BMP280;63269;53.330;-6.288;2022-12-07T09:52:17;102442.19;;;20.16
74750;BMP280;63269;53.330;-6.288;2022-12-07T09:54:47;102440.25;;;20.17
74750;BMP280;63269;53.330;-6.288;2022-12-07T09:57:14;102444.06;;;20.16
74750;BMP280;63269;53.330;-6.288;2022-12-07T09:59:39;102442.94;;;20.17
74750;BMP280;63269;53.330;-6.288;2022-12-07T10:02:38;102442.94;;;20.17
74750;BMP280;63269;53.330;-6.288;2022-12-07T10:05:09;102432.28;;;20.17
74750;BMP280;63269;53.330;-6.288;2022-12-07T10:07:35;102428.06;;;20.16
74750;BMP280;63269;53.330;-6.288;2022-12-07T10:10:12;102418.19;;;20.16
74750;BMP280;63269;53.330;-6.288;2022-12-07T10:15:20;102428.06;;;20.16
74750;BMP280;63269;53.330;-6.288;2022-12-07T10:17:51;102428.06;;;20.16
74750;BMP280;63269;53.330;-6.288;2022-12-07T10:20:24;102431.53;;;20.16
74750;BMP280;63269;53.330;-6.288;2022-12-07T10:23:36;102422.00;;;20.15
74750;BMP280;63269;53.330;-6.288;2022-12-07T10:25:43;102425.41;;;20.16
74750;BMP280;63269;53.330;-6.288;2022-12-07T10:33:39;102408.66;;;20.15
74750;BMP280;63269;53.330;-6.288;2022-12-07T10:36:23;102408.66;;;20.15
74750;BMP280;63269;53.330;-6.288;2022-12-07T10:41:23;102405.22;;;20.15
74750;BMP280;63269;53.330;-6.288;2022-12-07T10:43:55;102405.22;;;20.15
74750;BMP280;63269;53.330;-6.288;2022-12-07T10:46:40;102398.00;;;20.15
74750;BMP280;63269;53.330;-6.288;2022-12-07T11:02:54;102378.97;;;20.13
74750;BMP280;63269;53.330;-6.288;2022-12-07T11:05:51;102374.44;;;20.14
74750;BMP280;63269;53.330;-6.288;2022-12-07T11:16:19;102372.50;;;20.14
74750;BMP280;63269;53.330;-6.288;2022-12-07T11:19:01;102369.09;;;20.14
74750;BMP280;63269;53.330;-6.288;2022-12-07T11:22:06;102368.31;;;20.13
74750;BMP280;63269;53.330;-6.288;2022-12-07T11:24:50;102368.31;;;20.13
74750;BMP280;63269;53.330;-6.288;2022-12-07T11:27:34;102363.38;;;20.12
74750;BMP280;63269;53.330;-6.288;2022-12-07T11:30:10;102361.13;;;20.14
74750;BMP280;63269;53.330;-6.288;2022-12-07T11:33:39;102362.25;;;20.13
74750;BMP280;63269;53.330;-6.288;2022-12-07T11:36:55;102362.25;;;20.13
74750;BMP280;63269;53.330;-6.288;2022-12-07T11:38:55;102361.50;;;20.12
74750;BMP280;63269;53.330;-6.288;2022-12-07T11:41:35;102358.84;;;20.12
74750;BMP280;63269;53.330;-6.288;2022-12-07T11:44:25;102361.84;;;20.14
74750;BMP280;63269;53.330;-6.288;2022-12-07T11:46:59;102355.38;;;20.15
74750;BMP280;63269;53.330;-6.288;2022-12-07T11:50:01;102355.38;;;20.15
74750;BMP280;63269;53.330;-6.288;2022-12-07T11:55:19;102334.06;;;20.15
74750;BMP280;63269;53.330;-6.288;2022-12-07T11:57:50;102334.06;;;20.15
74750;BMP280;63269;53.330;-6.288;2022-12-07T12:00:17;102327.94;;;20.15
74750;BMP280;63269;53.330;-6.288;2022-12-07T12:02:58;102324.16;;;20.16
74750;BMP280;63269;53.330;-6.288;2022-12-07T12:05:25;102324.16;;;20.16
74750;BMP280;63269;53.330;-6.288;2022-12-07T12:08:01;102310.06;;;20.15
74750;BMP280;63269;53.330;-6.288;2022-12-07T12:11:00;102309.31;;;20.15
74750;BMP280;63269;53.330;-6.288;2022-12-07T12:13:55;102309.31;;;20.15
74750;BMP280;63269;53.330;-6.288;2022-12-07T12:21:37;102295.97;;;20.15
74750;BMP280;63269;53.330;-6.288;2022-12-07T12:24:10;102295.97;;;20.15
74750;BMP280;63269;53.330;-6.288;2022-12-07T12:26:38;102289.91;;;20.14
74750;BMP280;63269;53.330;-6.288;2022-12-07T12:29:30;102293.72;;;20.13
74750;BMP280;63269;53.330;-6.288;2022-12-07T12:32:17;102288.75;;;20.15
74750;BMP280;63269;53.330;-6.288;2022-12-07T12:37:39;102286.09;;;20.15
74750;BMP280;63269;53.330;-6.288;2022-12-07T12:42:51;102272.41;;;20.17
74750;BMP280;63269;53.330;-6.288;2022-12-07T12:47:57;102271.66;;;20.16
74750;BMP280;63269;53.330;-6.288;2022-12-07T12:50:35;102264.78;;;20.15
74750;BMP280;63269;53.330;-6.288;2022-12-07T13:00:46;102258.31;;;20.16
74750;BMP280;63269;53.330;-6.288;2022-12-07T13:03:27;102249.53;;;20.16
74750;BMP280;63269;53.330;-6.288;2022-12-07T13:06:20;102254.50;;;20.17
74750;BMP280;63269;53.330;-6.288;2022-12-07T13:08:59;102244.22;;;20.16
74750;BMP280;63269;53.330;-6.288;2022-12-07T13:11:32;102241.16;;;20.17
74750;BMP280;63269;53.330;-6.288;2022-12-07T13:15:02;102241.16;;;20.17
74750;BMP280;63269;53.330;-6.288;2022-12-07T13:17:03;102238.13;;;20.15
74750;BMP280;63269;53.330;-6.288;2022-12-07T13:25:07;102226.69;;;20.15
74750;BMP280;63269;53.330;-6.288;2022-12-07T13:27:37;102230.13;;;20.15
74750;BMP280;63269;53.330;-6.288;2022-12-07T13:30:18;102233.56;;;20.16
74750;BMP280;63269;53.330;-6.288;2022-12-07T13:32:52;102233.56;;;20.16
74750;BMP280;63269;53.330;-6.288;2022-12-07T13:35:32;102228.59;;;20.14
74750;BMP280;63269;53.330;-6.288;2022-12-07T13:37:58;102227.88;;;20.14
74750;BMP280;63269;53.330;-6.288;2022-12-07T13:40:24;102230.56;;;20.14
74750;BMP280;63269;53.330;-6.288;2022-12-07T13:43:00;102223.28;;;20.14
74750;BMP280;63269;53.330;-6.288;2022-12-07T13:45:29;102217.94;;;20.14
74750;BMP280;63269;53.330;-6.288;2022-12-07T13:48:35;102205.78;;;20.13
74750;BMP280;63269;53.330;-6.288;2022-12-07T13:51:03;102205.38;;;20.15
74750;BMP280;63269;53.330;-6.288;2022-12-07T13:53:29;102203.50;;;20.12
74750;BMP280;63269;53.330;-6.288;2022-12-07T13:55:59;102203.50;;;20.12
74750;BMP280;63269;53.330;-6.288;2022-12-07T13:58:27;102210.72;;;20.15
74750;BMP280;63269;53.330;-6.288;2022-12-07T14:00:55;102205.38;;;20.15
74750;BMP280;63269;53.330;-6.288;2022-12-07T14:03:26;102205.38;;;20.15
74750;BMP280;63269;53.330;-6.288;2022-12-07T14:06:27;102208.03;;;20.15
74750;BMP280;63269;53.330;-6.288;2022-12-07T14:09:25;102200.06;;;20.15
74750;BMP280;63269;53.330;-6.288;2022-12-07T14:11:55;102192.06;;;20.15
74750;BMP280;63269;53.330;-6.288;2022-12-07T14:14:27;102192.06;;;20.15
74750;BMP280;63269;53.330;-6.288;2022-12-07T14:17:19;102183.31;;;20.14
74750;BMP280;63269;53.330;-6.288;2022-12-07T14:22:38;102170.41;;;20.13
74750;BMP280;63269;53.330;-6.288;2022-12-07T14:27:38;102159.75;;;20.13
74750;BMP280;63269;53.330;-6.288;2022-12-07T14:30:05;102152.13;;;20.11
74750;BMP280;63269;53.330;-6.288;2022-12-07T14:32:31;102147.56;;;20.12
74750;BMP280;63269;53.330;-6.288;2022-12-07T14:35:10;102159.75;;;20.13
74750;BMP280;63269;53.330;-6.288;2022-12-07T14:37:36;102155.94;;;20.14
74750;BMP280;63269;53.330;-6.288;2022-12-07T14:40:02;102139.19;;;20.13
74750;BMP280;63269;53.330;-6.288;2022-12-07T14:42:28;102146.75;;;20.15
74750;BMP280;63269;53.330;-6.288;2022-12-07T14:44:55;102146.75;;;20.15
74750;BMP280;63269;53.330;-6.288;2022-12-07T14:47:21;102142.22;;;20.15
74750;BMP280;63269;53.330;-6.288;2022-12-07T14:49:47;102155.53;;;20.15
74750;BMP280;63269;53.330;-6.288;2022-12-07T14:52:30;102138.41;;;20.16
74750;BMP280;63269;53.330;-6.288;2022-12-07T14:54:56;102138.41;;;20.16
74750;BMP280;63269;53.330;-6.288;2022-12-07T14:57:22;102139.56;;;20.15
74750;BMP280;63269;53.330;-6.288;2022-12-07T14:59:48;102134.97;;;20.16
74750;BMP280;63269;53.330;-6.288;2022-12-07T15:02:14;102132.31;;;20.16
74750;BMP280;63269;53.330;-6.288;2022-12-07T15:04:40;102130.03;;;20.18
74750;BMP280;63269;53.330;-6.288;2022-12-07T15:07:10;102130.03;;;20.18
74750;BMP280;63269;53.330;-6.288;2022-12-07T15:09:38;102130.44;;;20.16
74750;BMP280;63269;53.330;-6.288;2022-12-07T15:12:03;102121.66;;;20.16
74750;BMP280;63269;53.330;-6.288;2022-12-07T15:14:29;102120.13;;;20.18
74750;BMP280;63269;53.330;-6.288;2022-12-07T15:16:54;102114.03;;;20.14
74750;BMP280;63269;53.330;-6.288;2022-12-07T15:19:23;102114.03;;;20.14
74750;BMP280;63269;53.330;-6.288;2022-12-07T15:21:51;102114.06;;;20.18
74750;BMP280;63269;53.330;-6.288;2022-12-07T15:24:17;102103.78;;;20.16
74750;BMP280;63269;53.330;-6.288;2022-12-07T15:26:43;102107.53;;;20.19
74750;BMP280;63269;53.330;-6.288;2022-12-07T15:29:09;102110.19;;;20.19
74750;BMP280;63269;53.330;-6.288;2022-12-07T15:31:35;102110.19;;;20.19
74750;BMP280;63269;53.330;-6.288;2022-12-07T15:34:01;102102.97;;;20.20
74750;BMP280;63269;53.330;-6.288;2022-12-07T15:36:28;102097.66;;;20.20
74750;BMP280;63269;53.330;-6.288;2022-12-07T15:38:54;102097.66;;;20.20
74750;BMP280;63269;53.330;-6.288;2022-12-07T15:41:19;102085.06;;;20.20
74750;BMP280;63269;53.330;-6.288;2022-12-07T15:43:45;102088.50;;;20.21
74750;BMP280;63269;53.330;-6.288;2022-12-07T15:46:34;102088.50;;;20.21